Time;durP1;ratioP1;P1;durP2;ratioP2;P2;SDS_P1;SDS_P2;PMS_P1;PMS_P2;Temp;Humidity;BMP_temperature;BMP_pressure;BME280_temperature;BME280_humidity;BME280_pressure;Samples;Min_cycle;Max_cycle;Signal;HPM_P1;HPM_P2
2022/06/30 00:00:27;;;;;;;6.53;4.57;;;15.00;99.90;;;;;;4148377;28;20182;-69
2022/06/30 00:02:27;;;;;;;5.07;4.57;;;14.90;99.90;;;;;;4147822;28;20209;-69
2022/06/30 00:04:28;;;;;;;5.50;4.97;;;14.90;99.90;;;;;;4148412;28;20699;-69
2022/06/30 00:06:29;;;;;;;5.83;4.80;;;14.90;99.90;;;;;;4148348;28;20249;-69
2022/06/30 00:08:30;;;;;;;5.30;4.60;;;14.80;99.90;;;;;;4148385;28;20643;-69
2022/06/30 00:10:30;;;;;;;5.00;4.53;;;14.80;99.90;;;;;;4148329;28;20182;-68
2022/06/30 00:12:31;;;;;;;7.27;5.03;;;14.80;99.90;;;;;;4147687;28;20225;-68
2022/06/30 00:14:31;;;;;;;7.30;4.60;;;14.80;99.90;;;;;;4148250;28;20178;-69
2022/06/30 00:16:32;;;;;;;6.13;4.83;;;14.80;99.90;;;;;;4148347;28;20236;-69
2022/06/30 00:18:33;;;;;;;4.93;4.43;;;14.80;99.90;;;;;;4148252;28;20265;-69
2022/06/30 00:20:34;;;;;;;5.03;4.60;;;14.80;99.90;;;;;;4148313;28;20186;-69
2022/06/30 00:22:34;;;;;;;5.20;4.57;;;14.80;99.90;;;;;;4147815;28;20292;-69
2022/06/30 00:24:35;;;;;;;6.73;5.00;;;14.80;99.90;;;;;;4148048;28;20192;-69
2022/06/30 00:26:36;;;;;;;6.00;5.20;;;14.70;99.90;;;;;;4147832;28;20209;-68
2022/06/30 00:28:36;;;;;;;5.43;4.83;;;14.70;99.90;;;;;;4148240;28;20528;-69
2022/06/30 00:30:37;;;;;;;5.70;5.10;;;14.60;99.90;;;;;;4148108;28;20240;-69
2022/06/30 00:32:37;;;;;;;8.30;5.87;;;14.60;99.90;;;;;;4147255;28;20201;-69
2022/06/30 00:34:38;;;;;;;6.03;4.33;;;14.50;99.90;;;;;;4147989;28;20594;-69
2022/06/30 00:36:38;;;;;;;6.17;5.10;;;14.60;99.90;;;;;;4147656;28;20178;-69
2022/06/30 00:38:39;;;;;;;6.33;5.60;;;14.60;99.90;;;;;;4147686;28;20255;-68
2022/06/30 00:40:44;;;;;;;5.80;5.20;;;14.60;99.90;;;;;;4130145;28;20720;-68
2022/06/30 00:42:45;;;;;;;6.73;4.90;;;14.60;99.90;;;;;;4147650;28;20751;-69
2022/06/30 00:44:45;;;;;;;7.53;5.63;;;14.60;99.90;;;;;;4147847;28;20247;-69
2022/06/30 00:46:46;;;;;;;6.53;4.80;;;14.50;99.90;;;;;;4148010;28;20367;-69
2022/06/30 00:48:47;;;;;;;6.20;4.87;;;14.40;99.90;;;;;;4147746;28;20641;-69
2022/06/30 00:50:47;;;;;;;5.37;4.87;;;14.30;99.90;;;;;;4146989;28;20831;-69
2022/06/30 00:52:50;;;;;;;6.30;5.00;;;14.30;99.90;;;;;;4147736;28;20279;-69
2022/06/30 00:54:52;;;;;;;5.43;4.93;;;14.30;99.90;;;;;;4147661;28;20189;-69
2022/06/30 00:56:54;;;;;;;6.40;4.83;;;14.30;99.90;;;;;;4147697;28;20647;-69
2022/06/30 00:59:00;;;;;;;5.63;4.97;;;14.30;99.90;;;;;;4147981;28;20200;-69
2022/06/30 01:01:04;;;;;;;7.10;5.10;;;14.20;99.90;;;;;;4147253;28;20240;-69
2022/06/30 01:03:07;;;;;;;7.73;4.80;;;14.20;99.90;;;;;;4147661;28;20240;-69
2022/06/30 01:05:08;;;;;;;7.83;5.40;;;14.30;99.90;;;;;;4129988;28;20206;-69
2022/06/30 01:07:10;;;;;;;7.40;5.10;;;14.20;99.90;;;;;;4147630;28;20189;-69
2022/06/30 01:09:10;;;;;;;6.87;5.63;;;14.20;99.90;;;;;;4147430;28;20180;-69
2022/06/30 01:13:31;;;;;;;7.17;5.27;;;14.20;99.90;;;;;;4147833;28;20204;-70
2022/06/30 01:15:32;;;;;;;6.60;5.83;;;14.20;99.90;;;;;;4147590;28;20173;-69
2022/06/30 01:17:33;;;;;;;5.53;4.97;;;14.20;99.90;;;;;;4147343;28;20184;-70
2022/06/30 01:19:33;;;;;;;6.40;5.37;;;14.10;99.90;;;;;;4147551;28;20762;-69
2022/06/30 01:21:34;;;;;;;7.73;5.50;;;14.10;99.90;;;;;;4146661;28;20649;-69
2022/06/30 01:23:35;;;;;;;5.77;5.13;;;14.10;99.90;;;;;;4146941;28;20582;-69
2022/06/30 01:25:35;;;;;;;6.20;4.77;;;14.00;99.90;;;;;;4146983;28;20217;-69
2022/06/30 01:27:37;;;;;;;9.27;5.60;;;14.00;99.90;;;;;;4147197;28;20205;-69
2022/06/30 01:29:38;;;;;;;6.33;5.53;;;13.90;99.90;;;;;;4147470;28;20181;-69
2022/06/30 01:31:38;;;;;;;7.63;5.63;;;13.90;99.90;;;;;;4146455;28;20201;-69
2022/06/30 01:33:39;;;;;;;9.13;5.30;;;13.90;99.90;;;;;;4147187;28;20185;-69
2022/06/30 01:35:39;;;;;;;5.90;5.30;;;13.80;99.90;;;;;;4147111;28;20193;-70
2022/06/30 01:37:48;;;;;;;6.10;5.10;;;13.80;99.90;;;;;;4146836;28;20178;-69
2022/06/30 01:39:49;;;;;;;6.13;5.53;;;13.80;99.90;;;;;;4146737;28;20648;-69
2022/06/30 01:41:50;;;;;;;7.30;5.63;;;13.80;99.90;;;;;;4146170;28;20217;-69
2022/06/30 01:43:50;;;;;;;7.30;5.40;;;13.80;99.90;;;;;;4146717;28;20243;-70
2022/06/30 01:45:51;;;;;;;6.33;5.73;;;13.80;99.90;;;;;;4146834;28;20255;-69
2022/06/30 01:47:52;;;;;;;5.83;5.33;;;13.80;99.90;;;;;;4146597;28;20181;-69
2022/06/30 01:49:53;;;;;;;7.23;6.07;;;13.70;99.90;;;;;;4146123;28;20185;-69
2022/06/30 01:51:53;;;;;;;7.50;5.23;;;13.70;99.90;;;;;;4145458;28;20209;-69
2022/06/30 01:53:54;;;;;;;6.60;5.30;;;13.70;99.90;;;;;;4146670;28;20181;-69
2022/06/30 01:55:54;;;;;;;6.90;5.77;;;13.70;99.90;;;;;;4129053;28;20187;-70
2022/06/30 01:57:55;;;;;;;8.93;5.77;;;13.60;99.90;;;;;;4146424;28;20548;-70
2022/06/30 01:59:56;;;;;;;7.57;5.57;;;13.60;99.90;;;;;;4146470;28;20730;-70
2022/06/30 02:01:57;;;;;;;7.30;5.27;;;13.50;99.90;;;;;;4145949;28;20205;-71
2022/06/30 02:04:46;;;;;;;6.57;5.80;;;13.50;99.90;;;;;;4146400;28;20190;-69
2022/06/30 02:06:19;;;;;;;6.77;6.13;;;13.50;99.90;;;;;;4146272;28;20221;-69
2022/06/30 02:08:20;;;;;;;7.03;5.93;;;13.50;99.90;;;;;;4139337;28;20247;-69
2022/06/30 02:10:22;;;;;;;6.93;5.97;;;13.50;99.90;;;;;;4144897;28;20190;-70
2022/06/30 02:14:42;;;;;;;8.67;5.70;;;13.40;99.90;;;;;;4146596;28;20176;-70
2022/06/30 02:16:44;;;;;;;6.03;5.43;;;13.40;99.90;;;;;;4146298;28;20173;-70
2022/06/30 02:18:45;;;;;;;6.87;5.00;;;13.40;99.90;;;;;;4146476;28;20343;-70
2022/06/30 02:20:46;;;;;;;6.03;5.40;;;13.40;99.90;;;;;;4145776;28;20182;-69
2022/06/30 02:22:48;;;;;;;7.40;5.53;;;13.30;99.90;;;;;;4146230;28;20256;-70
2022/06/30 02:24:49;;;;;;;10.33;6.27;;;13.30;99.90;;;;;;4144772;28;20189;-70
2022/06/30 02:26:49;;;;;;;7.07;5.40;;;13.30;99.90;;;;;;4146117;28;20707;-70
2022/06/30 02:28:50;;;;;;;8.67;6.27;;;13.20;99.90;;;;;;4146429;28;20182;-70
2022/06/30 02:30:50;;;;;;;7.20;6.50;;;13.20;99.90;;;;;;4145905;28;20200;-70
2022/06/30 02:32:51;;;;;;;7.40;5.70;;;13.20;99.90;;;;;;4128525;28;20205;-70
2022/06/30 02:34:53;;;;;;;6.93;6.23;;;13.20;99.90;;;;;;4146107;28;20185;-69
2022/06/30 02:36:54;;;;;;;6.73;5.90;;;13.20;99.90;;;;;;4146056;28;20178;-71
2022/06/30 02:38:54;;;;;;;6.90;5.93;;;13.20;99.90;;;;;;4146114;28;20189;-70
2022/06/30 02:40:55;;;;;;;8.67;5.93;;;13.10;99.90;;;;;;4145457;28;20185;-70
2022/06/30 02:42:56;;;;;;;7.20;6.13;;;13.10;99.90;;;;;;4145766;28;20202;-70
2022/06/30 02:44:56;;;;;;;7.60;6.43;;;13.10;99.90;;;;;;4146071;28;20181;-71
2022/06/30 02:46:57;;;;;;;7.57;6.00;;;13.10;99.90;;;;;;4145991;28;20209;-71
2022/06/30 02:48:57;;;;;;;7.50;5.73;;;13.10;99.90;;;;;;4145966;28;20185;-70
2022/06/30 02:50:58;;;;;;;8.37;6.40;;;13.20;99.90;;;;;;4145286;28;20184;-70
2022/06/30 02:52:58;;;;;;;6.43;5.83;;;13.10;99.90;;;;;;4145387;28;20803;-70
2022/06/30 02:55:00;;;;;;;8.00;6.60;;;13.10;99.90;;;;;;4146093;28;20181;-70
2022/06/30 02:57:01;;;;;;;7.10;6.40;;;13.00;99.90;;;;;;4145898;28;20735;-70
2022/06/30 02:59:02;;;;;;;7.90;6.37;;;13.00;99.90;;;;;;4145834;28;20188;-71
2022/06/30 03:01:02;;;;;;;6.57;5.97;;;13.00;99.90;;;;;;4145195;28;20562;-71
2022/06/30 03:03:03;;;;;;;8.73;7.70;;;13.00;99.90;;;;;;4128070;28;20198;-70
2022/06/30 03:05:04;;;;;;;7.37;6.40;;;13.10;99.90;;;;;;4145704;28;20186;-71
2022/06/30 03:07:04;;;;;;;7.93;6.83;;;13.10;99.90;;;;;;4145453;28;20217;-71
2022/06/30 03:09:05;;;;;;;7.00;6.07;;;13.10;99.90;;;;;;4145516;28;20205;-71
2022/06/30 03:11:05;;;;;;;8.97;7.43;;;13.00;99.90;;;;;;4145068;28;20182;-71
2022/06/30 03:13:06;;;;;;;7.90;7.07;;;13.00;99.90;;;;;;4145617;28;20268;-71
2022/06/30 03:15:07;;;;;;;7.63;6.77;;;13.00;99.90;;;;;;4145569;28;20727;-70
2022/06/30 03:17:07;;;;;;;7.03;6.30;;;13.00;99.90;;;;;;4145635;28;20679;-70
2022/06/30 03:19:08;;;;;;;9.23;6.43;;;13.00;99.90;;;;;;4145627;28;20246;-71
2022/06/30 03:21:09;;;;;;;8.23;7.23;;;13.00;99.90;;;;;;4145181;28;20192;-71
2022/06/30 03:23:09;;;;;;;7.33;6.63;;;12.90;99.90;;;;;;4145632;28;20209;-70
2022/06/30 03:25:10;;;;;;;7.23;6.53;;;12.90;99.90;;;;;;4145473;28;20193;-71
2022/06/30 03:27:10;;;;;;;8.60;6.57;;;12.90;99.90;;;;;;4145508;28;20236;-71
2022/06/30 03:29:11;;;;;;;8.03;6.93;;;12.80;99.90;;;;;;4145198;28;20265;-71
2022/06/30 03:31:11;;;;;;;8.40;7.43;;;12.80;99.90;;;;;;4127319;28;20174;-70
2022/06/30 03:33:12;;;;;;;7.73;6.43;;;12.80;99.90;;;;;;4145475;28;20303;-71
2022/06/30 03:35:12;;;;;;;8.77;6.23;;;12.70;99.90;;;;;;4145436;28;20192;-70
2022/06/30 03:37:13;;;;;;;7.47;6.23;;;12.80;99.90;;;;;;4145589;28;20382;-70
2022/06/30 03:39:13;;;;;;;7.47;6.37;;;12.80;99.90;;;;;;4145522;28;20182;-71
2022/06/30 03:41:14;;;;;;;7.77;6.97;;;12.80;99.90;;;;;;4144756;28;20257;-71
2022/06/30 03:43:17;;;;;;;9.03;6.47;;;12.70;99.90;;;;;;4145428;28;20198;-70
2022/06/30 03:45:17;;;;;;;7.67;6.43;;;12.70;99.90;;;;;;4145349;28;20260;-70
2022/06/30 03:47:18;;;;;;;9.00;6.20;;;12.70;99.90;;;;;;4145263;28;20178;-70
2022/06/30 03:49:18;;;;;;;6.47;5.63;;;12.70;99.90;;;;;;4127880;28;20701;-70
2022/06/30 03:51:19;;;;;;;7.63;6.13;;;12.70;99.90;;;;;;4144664;28;20186;-70
2022/06/30 03:53:19;;;;;;;10.50;7.23;;;12.70;99.90;;;;;;4145427;28;20252;-71
2022/06/30 03:55:20;;;;;;;7.37;6.63;;;12.80;99.90;;;;;;4145470;28;20209;-70
2022/06/30 03:57:20;;;;;;;7.97;7.10;;;12.80;99.90;;;;;;4145505;28;20174;-71
2022/06/30 03:59:21;;;;;;;8.53;7.60;;;12.80;99.90;;;;;;4127590;28;20961;-70
2022/06/30 04:01:21;;;;;;;10.07;7.63;;;12.80;99.90;;;;;;4144675;28;20185;-70
2022/06/30 04:03:22;;;;;;;7.83;7.03;;;12.80;99.90;;;;;;4145202;28;20189;-70
2022/06/30 04:05:22;;;;;;;9.20;7.13;;;12.90;99.90;;;;;;4145364;28;20201;-71
2022/06/30 04:07:23;;;;;;;10.53;7.17;;;13.00;99.90;;;;;;4145179;28;20193;-70
2022/06/30 04:09:24;;;;;;;11.93;7.07;;;12.90;99.90;;;;;;4145363;28;20174;-71
2022/06/30 04:11:24;;;;;;;7.47;6.40;;;12.90;99.90;;;;;;4144778;28;20205;-71
2022/06/30 04:13:25;;;;;;;6.63;6.03;;;12.90;99.90;;;;;;4148299;28;20201;-71
2022/06/30 04:15:26;;;;;;;9.10;7.17;;;12.90;99.90;;;;;;4148026;28;20185;-70
2022/06/30 04:17:26;;;;;;;7.20;6.20;;;12.90;99.90;;;;;;4148257;28;20180;-70
2022/06/30 04:19:27;;;;;;;7.77;6.03;;;13.00;99.90;;;;;;4148166;28;20185;-70
2022/06/30 04:21:27;;;;;;;7.90;5.73;;;13.00;99.90;;;;;;4147479;28;20649;-71
2022/06/30 04:23:28;;;;;;;7.23;6.10;;;13.00;99.90;;;;;;4139996;28;20221;-70
2022/06/30 04:25:28;;;;;;;8.97;7.20;;;13.00;99.90;;;;;;4135183;28;20191;-70
2022/06/30 04:27:29;;;;;;;8.20;7.00;;;13.00;99.90;;;;;;4147892;28;20285;-70
2022/06/30 04:29:30;;;;;;;7.73;6.17;;;13.00;99.90;;;;;;4147871;28;20605;-71
2022/06/30 04:33:49;;;;;;;7.20;6.13;;;13.10;99.90;;;;;;4148073;28;20220;-71
2022/06/30 04:35:50;;;;;;;7.70;6.03;;;13.20;99.90;;;;;;4148037;28;20185;-71
2022/06/30 04:37:50;;;;;;;6.17;5.27;;;13.20;99.90;;;;;;4148133;28;20188;-71
2022/06/30 04:41:23;;;;;;;8.10;6.20;;;13.10;99.90;;;;;;4147908;28;20205;-71
2022/06/30 04:42:14;;;;;;;7.73;5.93;;;13.10;99.90;;;;;;4147030;28;20275;-71
2022/06/30 04:44:15;;;;;;;8.80;6.03;;;13.10;99.90;;;;;;4148053;28;20182;-72
2022/06/30 04:46:15;;;;;;;7.40;6.70;;;13.20;99.90;;;;;;4147789;28;20224;-72
2022/06/30 04:48:16;;;;;;;11.70;9.37;;;13.20;99.90;;;;;;4147842;28;20691;-72
2022/06/30 04:50:17;;;;;;;11.07;9.20;;;13.30;99.90;;;;;;4147614;28;20169;-71
2022/06/30 04:52:17;;;;;;;12.03;7.90;;;13.40;99.90;;;;;;4147123;28;20216;-71
2022/06/30 04:54:18;;;;;;;10.10;8.00;;;13.40;99.90;;;;;;4147737;28;20193;-71
2022/06/30 04:56:20;;;;;;;10.97;8.47;;;13.40;99.90;;;;;;4147759;28;20216;-71
2022/06/30 04:58:20;;;;;;;9.77;8.70;;;13.50;99.90;;;;;;4147629;28;20198;-70
2022/06/30 05:00:21;;;;;;;9.93;7.53;;;13.40;99.90;;;;;;4147453;28;20212;-71
2022/06/30 05:02:22;;;;;;;10.03;8.20;;;13.50;99.90;;;;;;4146960;28;20220;-72
2022/06/30 05:04:22;;;;;;;10.77;9.27;;;13.60;99.90;;;;;;4147370;28;20223;-71
2022/06/30 05:06:23;;;;;;;9.93;8.27;;;13.60;99.90;;;;;;4147068;28;20213;-71
2022/06/30 05:08:23;;;;;;;8.93;7.90;;;13.70;99.90;;;;;;4147313;28;20196;-71
2022/06/30 05:10:24;;;;;;;11.60;8.87;;;13.70;99.90;;;;;;4147350;28;20617;-71
2022/06/30 05:12:24;;;;;;;12.03;9.90;;;13.80;99.90;;;;;;4129256;28;20233;-71
2022/06/30 05:14:25;;;;;;;9.23;8.17;;;13.90;99.90;;;;;;4147243;28;20607;-71
2022/06/30 05:16:25;;;;;;;9.47;8.07;;;13.90;99.90;;;;;;4147269;28;20182;-72
2022/06/30 05:18:27;;;;;;;10.97;9.07;;;14.00;99.90;;;;;;4147209;28;20193;-71
2022/06/30 05:20:28;;;;;;;9.53;8.47;;;14.00;99.90;;;;;;4129725;28;20224;-72
2022/06/30 05:22:28;;;;;;;13.23;10.50;;;14.10;99.90;;;;;;4146710;28;20205;-72
2022/06/30 05:26:48;;;;;;;11.50;8.83;;;14.20;99.90;;;;;;4147079;28;20220;-71
2022/06/30 05:28:49;;;;;;;10.40;9.27;;;14.20;99.90;;;;;;4146968;28;20584;-72
2022/06/30 05:30:50;;;;;;;12.43;8.80;;;14.30;99.90;;;;;;4146208;28;20216;-72
2022/06/30 05:32:50;;;;;;;14.60;8.53;;;14.30;99.90;;;;;;4146929;28;20201;-71
2022/06/30 05:34:51;;;;;;;11.47;8.63;;;14.40;99.90;;;;;;4146540;28;20173;-72
2022/06/30 05:36:51;;;;;;;10.20;8.17;;;14.40;99.90;;;;;;4146807;28;20193;-72
2022/06/30 05:38:52;;;;;;;9.73;8.73;;;14.50;99.90;;;;;;4146617;28;20240;-72
2022/06/30 05:40:53;;;;;;;9.87;8.03;;;14.50;99.90;;;;;;4146125;28;20186;-72
2022/06/30 05:42:54;;;;;;;9.70;7.90;;;14.60;99.90;;;;;;4146884;28;20197;-72
2022/06/30 05:44:54;;;;;;;11.97;7.87;;;14.60;99.90;;;;;;4129321;28;20707;-72
2022/06/30 05:46:55;;;;;;;9.10;8.17;;;14.60;99.90;;;;;;4146719;28;20292;-72
2022/06/30 05:48:56;;;;;;;9.03;8.07;;;14.70;99.90;;;;;;4129284;28;20183;-72
2022/06/30 05:50:57;;;;;;;10.03;8.00;;;14.80;99.90;;;;;;4146061;28;20262;-72
2022/06/30 05:52:57;;;;;;;10.30;8.63;;;14.80;99.90;;;;;;4146352;28;20228;-72
2022/06/30 05:54:58;;;;;;;9.60;8.20;;;14.90;99.90;;;;;;4129073;28;20248;-72
2022/06/30 05:56:59;;;;;;;11.20;8.00;;;14.90;99.90;;;;;;4146617;28;20189;-72
2022/06/30 05:58:59;;;;;;;9.60;8.17;;;15.00;99.90;;;;;;4146719;28;20192;-72
2022/06/30 06:01:00;;;;;;;11.50;8.13;;;15.00;99.90;;;;;;4145971;28;20196;-72
2022/06/30 06:03:01;;;;;;;9.33;8.40;;;15.10;99.90;;;;;;4146491;28;20201;-72
2022/06/30 06:05:01;;;;;;;10.20;9.10;;;15.30;99.90;;;;;;4146055;28;20608;-72
2022/06/30 06:07:05;;;;;;;13.17;8.00;;;15.40;99.90;;;;;;4128744;28;20300;-72
2022/06/30 06:09:06;;;;;;;9.07;7.63;;;15.50;99.90;;;;;;4146546;28;20188;-72
2022/06/30 06:11:06;;;;;;;9.20;7.13;;;15.50;99.90;;;;;;4128351;28;20652;-72
2022/06/30 06:13:07;;;;;;;9.00;6.70;;;15.60;99.90;;;;;;4146428;28;20198;-72
2022/06/30 06:15:09;;;;;;;8.27;6.67;;;15.60;99.90;;;;;;4146478;28;20174;-72
2022/06/30 06:17:09;;;;;;;8.33;6.37;;;15.70;99.90;;;;;;4146300;28;20272;-73
2022/06/30 06:19:10;;;;;;;6.60;5.90;;;15.80;99.90;;;;;;4146341;28;20240;-72
2022/06/30 06:21:10;;;;;;;6.33;5.13;;;15.90;99.90;;;;;;4128279;28;20235;-72
2022/06/30 06:23:11;;;;;;;8.97;5.80;;;16.10;99.90;;;;;;4146030;28;20260;-72
2022/06/30 06:25:13;;;;;;;7.87;5.57;;;16.10;99.90;;;;;;4146415;28;20754;-72
2022/06/30 06:27:13;;;;;;;5.53;4.50;;;16.30;99.90;;;;;;4146126;28;20711;-72
2022/06/30 06:29:15;;;;;;;4.20;3.80;;;16.50;99.90;;;;;;4146205;28;20193;-72
2022/06/30 06:31:16;;;;;;;4.47;3.97;;;17.00;99.90;;;;;;4128263;28;20179;-72
2022/06/30 06:33:16;;;;;;;4.30;3.90;;;17.20;99.90;;;;;;4145861;28;20243;-72
2022/06/30 06:35:17;;;;;;;6.93;3.73;;;17.30;99.90;;;;;;4145897;28;20256;-72
2022/06/30 06:37:17;;;;;;;4.23;3.63;;;17.60;99.70;;;;;;4146174;28;20185;-73
2022/06/30 06:39:18;;;;;;;5.10;3.97;;;17.80;98.80;;;;;;4146150;28;20260;-72
2022/06/30 06:41:20;;;;;;;4.47;3.43;;;17.90;98.70;;;;;;4145624;28;20181;-72
2022/06/30 06:43:21;;;;;;;3.83;3.43;;;17.90;98.90;;;;;;4146318;28;20193;-73
2022/06/30 06:45:22;;;;;;;4.00;3.67;;;18.00;98.20;;;;;;4146232;28;20185;-74
2022/06/30 06:47:23;;;;;;;4.13;3.73;;;18.00;98.80;;;;;;4140145;28;20185;-72
2022/06/30 06:49:23;;;;;;;4.13;3.70;;;18.00;98.90;;;;;;4146042;28;20244;-72
2022/06/30 06:51:24;;;;;;;4.93;4.17;;;17.90;99.20;;;;;;4135795;28;20201;-72
2022/06/30 06:53:24;;;;;;;5.17;4.20;;;17.90;98.80;;;;;;4145504;28;20233;-72
2022/06/30 06:55:25;;;;;;;4.17;3.30;;;18.20;97.30;;;;;;4145766;28;20541;-72
2022/06/30 06:57:32;;;;;;;5.10;3.00;;;18.70;95.60;;;;;;4145702;28;20609;-72
2022/06/30 06:59:34;;;;;;;5.43;3.20;;;19.00;95.00;;;;;;4145568;28;20200;-72
2022/06/30 07:01:35;;;;;;;5.13;3.30;;;19.10;94.20;;;;;;4143681;28;20243;-72
2022/06/30 07:03:36;;;;;;;5.90;3.50;;;19.20;93.50;;;;;;4145659;28;20194;-72
2022/06/30 07:05:36;;;;;;;5.70;3.30;;;19.10;94.40;;;;;;4136046;28;20174;-73
2022/06/30 07:07:37;;;;;;;3.90;3.40;;;19.20;94.00;;;;;;4145763;28;20178;-72
2022/06/30 07:09:38;;;;;;;5.37;2.97;;;19.20;94.60;;;;;;4145699;28;20189;-73
2022/06/30 07:11:38;;;;;;;3.27;2.90;;;19.30;92.00;;;;;;4144567;28;20190;-72
2022/06/30 07:13:39;;;;;;;3.97;2.80;;;19.60;91.60;;;;;;4145349;28;20364;-72
2022/06/30 07:15:40;;;;;;;4.77;4.20;;;19.60;92.60;;;;;;4143970;28;20680;-71
2022/06/30 07:17:40;;;;;;;3.50;2.70;;;19.70;89.80;;;;;;4144045;28;20173;-72
2022/06/30 07:19:42;;;;;;;4.23;2.63;;;19.90;87.20;;;;;;4145394;28;20276;-71
2022/06/30 07:21:43;;;;;;;4.90;4.40;;;20.00;84.30;;;;;;4143208;28;20177;-72
2022/06/30 07:23:43;;;;;;;3.63;2.90;;;20.20;82.60;;;;;;4145404;28;20602;-72
2022/06/30 07:25:44;;;;;;;4.73;3.23;;;20.30;83.90;;;;;;4145312;28;20570;-72
2022/06/30 07:27:45;;;;;;;3.33;2.80;;;20.40;81.20;;;;;;4145653;28;20182;-71
2022/06/30 07:29:45;;;;;;;4.00;2.83;;;20.60;80.00;;;;;;4145644;28;20595;-72
2022/06/30 07:31:46;;;;;;;3.70;2.57;;;20.60;81.90;;;;;;4144941;28;20182;-72
2022/06/30 07:33:46;;;;;;;3.20;2.83;;;20.80;75.90;;;;;;4145700;28;20232;-71
2022/06/30 07:35:47;;;;;;;7.07;3.23;;;20.80;77.80;;;;;;4145578;28;20268;-72
2022/06/30 07:37:47;;;;;;;3.20;2.90;;;21.00;78.80;;;;;;4143972;28;20227;-71
2022/06/30 07:39:48;;;;;;;3.37;3.00;;;21.00;77.00;;;;;;4145240;28;20764;-71
2022/06/30 07:41:49;;;;;;;5.23;3.63;;;21.20;75.90;;;;;;4144702;28;20188;-72
2022/06/30 07:43:49;;;;;;;4.73;3.33;;;21.20;75.50;;;;;;4145443;28;20228;-71
2022/06/30 07:45:51;;;;;;;9.07;3.00;;;21.30;77.90;;;;;;4145571;28;20217;-71
2022/06/30 07:47:53;;;;;;;5.37;2.80;;;21.30;72.70;;;;;;4147638;28;20753;-71
2022/06/30 07:49:53;;;;;;;4.80;3.07;;;21.30;74.40;;;;;;4148584;28;20636;-71
2022/06/30 07:51:54;;;;;;;2.67;2.47;;;21.40;71.50;;;;;;4147810;28;20198;-72
2022/06/30 07:53:55;;;;;;;3.13;2.63;;;21.40;71.10;;;;;;4148202;28;20205;-71
2022/06/30 07:55:55;;;;;;;3.50;2.60;;;21.40;76.10;;;;;;4148473;28;20178;-71
2022/06/30 07:57:56;;;;;;;4.13;3.20;;;21.40;72.80;;;;;;4148335;28;20182;-72
2022/06/30 07:59:56;;;;;;;4.70;3.00;;;21.50;73.90;;;;;;4148416;28;20184;-71
2022/06/30 08:01:57;;;;;;;4.00;2.90;;;21.70;72.80;;;;;;4147258;28;20212;-71
2022/06/30 08:03:58;;;;;;;5.13;3.07;;;21.70;72.40;;;;;;4148213;28;20192;-71
2022/06/30 08:05:58;;;;;;;3.13;2.60;;;21.80;70.10;;;;;;4148391;28;20213;-70
2022/06/30 08:07:59;;;;;;;5.23;2.80;;;21.80;70.20;;;;;;4148331;28;20174;-71
2022/06/30 08:10:00;;;;;;;3.80;2.53;;;21.80;67.80;;;;;;4148311;28;20550;-71
2022/06/30 08:12:00;;;;;;;3.30;2.33;;;21.90;67.40;;;;;;4147873;28;20202;-71
2022/06/30 08:14:01;;;;;;;3.90;2.63;;;21.90;66.00;;;;;;4148279;28;20177;-71
2022/06/30 08:16:03;;;;;;;4.20;3.90;;;22.10;65.60;;;;;;4148267;28;20174;-71
2022/06/30 08:18:05;;;;;;;4.87;3.20;;;22.20;62.80;;;;;;4148174;28;20693;-72
2022/06/30 08:20:06;;;;;;;5.30;3.17;;;22.10;63.50;;;;;;4148020;28;20190;-71
2022/06/30 08:22:07;;;;;;;3.57;2.50;;;22.00;64.40;;;;;;4147460;28;20814;-71
2022/06/30 08:24:07;;;;;;;8.27;3.00;;;22.10;60.60;;;;;;4148164;28;20236;-71
2022/06/30 08:26:08;;;;;;;3.53;2.50;;;22.40;64.10;;;;;;4130613;28;20226;-71
2022/06/30 08:28:09;;;;;;;5.60;2.87;;;22.60;65.40;;;;;;4148004;28;20173;-70
2022/06/30 08:30:10;;;;;;;3.50;2.43;;;22.60;60.70;;;;;;4147888;28;20207;-71
2022/06/30 08:32:10;;;;;;;6.57;3.77;;;22.60;58.60;;;;;;4147344;28;20247;-71
2022/06/30 08:34:11;;;;;;;2.60;2.40;;;22.70;60.80;;;;;;4147993;28;20621;-70
2022/06/30 08:36:11;;;;;;;4.93;2.90;;;22.70;61.10;;;;;;4147924;28;20185;-71
2022/06/30 08:38:12;;;;;;;5.60;5.07;;;22.80;58.60;;;;;;4147899;28;20181;-71
2022/06/30 08:42:35;;;;;;;4.57;2.60;;;22.50;58.40;;;;;;4126154;28;20566;-70
2022/06/30 08:44:37;;;;;;;5.93;5.43;;;22.40;58.70;;;;;;4147859;28;20637;-71
2022/06/30 08:46:38;;;;;;;3.30;3.00;;;22.60;59.60;;;;;;4147635;28;20213;-70
2022/06/30 08:48:39;;;;;;;4.90;2.60;;;22.60;63.10;;;;;;4147700;28;20181;-71
2022/06/30 08:50:43;;;;;;;3.53;2.80;;;22.80;57.30;;;;;;4130012;28;20293;-69
2022/06/30 08:52:51;;;;;;;5.50;3.10;;;22.90;56.90;;;;;;4147363;28;20228;-71
2022/06/30 08:54:53;;;;;;;8.70;2.60;;;23.10;55.30;;;;;;4147697;28;20204;-71
2022/06/30 08:56:56;;;;;;;3.83;2.83;;;23.20;56.50;;;;;;4147608;28;20230;-70
2022/06/30 08:58:58;;;;;;;5.60;2.60;;;23.20;57.60;;;;;;4147336;28;20249;-70
2022/06/30 09:00:58;;;;;;;5.30;4.30;;;23.30;54.40;;;;;;4146862;28;20209;-70
2022/06/30 09:03:00;;;;;;;4.97;2.67;;;23.30;55.20;;;;;;4147213;28;20201;-70
2022/06/30 09:05:01;;;;;;;2.87;2.60;;;23.20;55.40;;;;;;4147429;28;20232;-70
2022/06/30 09:07:01;;;;;;;3.73;2.63;;;23.40;54.50;;;;;;4147355;28;20296;-70
2022/06/30 09:09:04;;;;;;;3.30;2.47;;;23.50;54.10;;;;;;4147360;28;20180;-70
2022/06/30 09:11:05;;;;;;;2.90;2.70;;;23.70;52.90;;;;;;4146788;28;20201;-70
2022/06/30 09:13:05;;;;;;;3.57;2.80;;;23.60;54.50;;;;;;4147192;28;20967;-70
2022/06/30 09:15:06;;;;;;;4.27;2.87;;;23.90;55.30;;;;;;4147247;28;21342;-70
2022/06/30 09:17:10;;;;;;;4.00;2.80;;;24.00;54.70;;;;;;4147169;28;20181;-70
2022/06/30 09:19:10;;;;;;;4.20;3.03;;;24.10;53.50;;;;;;4147240;28;20752;-71
2022/06/30 09:21:16;;;;;;;5.40;2.90;;;24.30;53.50;;;;;;4146872;28;20193;-70
2022/06/30 09:23:19;;;;;;;9.93;9.30;;;24.60;54.40;;;;;;4147122;28;20208;-70
2022/06/30 09:25:24;;;;;;;3.80;2.60;;;24.50;52.20;;;;;;4147176;28;20182;-70
2022/06/30 09:27:27;;;;;;;4.20;3.00;;;24.40;52.30;;;;;;4147159;28;20834;-69
2022/06/30 09:29:27;;;;;;;3.20;2.90;;;24.40;53.60;;;;;;4147057;28;20193;-70
2022/06/30 09:31:39;;;;;;;3.73;2.70;;;24.70;51.10;;;;;;4146457;28;20170;-71
2022/06/30 09:33:41;;;;;;;3.67;2.80;;;24.80;51.70;;;;;;4147264;28;20178;-70
2022/06/30 09:35:41;;;;;;;5.50;5.10;;;25.00;51.80;;;;;;4147108;28;20261;-70
2022/06/30 09:37:42;;;;;;;4.97;2.90;;;24.70;51.90;;;;;;4147009;28;20178;-70
2022/06/30 09:39:44;;;;;;;5.57;2.93;;;24.60;53.20;;;;;;4146867;28;20174;-70
2022/06/30 09:41:46;;;;;;;5.23;4.73;;;24.70;52.70;;;;;;4146261;28;20174;-70
2022/06/30 09:43:46;;;;;;;5.27;4.73;;;25.20;53.60;;;;;;4147099;28;20184;-70
2022/06/30 09:45:47;;;;;;;3.87;3.57;;;24.90;51.50;;;;;;4146660;28;20217;-68
2022/06/30 09:47:53;;;;;;;3.20;2.90;;;24.80;54.10;;;;;;4146732;28;20186;-69
2022/06/30 09:49:54;;;;;;;4.60;4.10;;;25.00;52.00;;;;;;4146830;28;20178;-69
2022/06/30 09:51:55;;;;;;;3.63;2.87;;;25.30;50.50;;;;;;4145855;28;20228;-69
2022/06/30 09:54:09;;;;;;;3.57;3.20;;;25.30;51.10;;;;;;4146611;28;20189;-69
2022/06/30 09:56:12;;;;;;;15.87;14.87;;;25.40;49.20;;;;;;4146591;28;20214;-69
2022/06/30 09:58:31;;;;;;;6.93;6.37;;;25.60;47.10;;;;;;4146599;28;20297;-69
2022/06/30 10:00:43;;;;;;;3.03;2.83;;;25.20;49.00;;;;;;4146286;28;20347;-69
2022/06/30 10:02:46;;;;;;;8.70;7.93;;;25.40;48.20;;;;;;4146337;28;20201;-68
2022/06/30 10:04:54;;;;;;;4.43;4.10;;;25.90;49.30;;;;;;4146565;28;20553;-69
2022/06/30 10:06:55;;;;;;;4.73;3.50;;;25.80;49.00;;;;;;4146400;28;20213;-69
2022/06/30 10:08:56;;;;;;;5.03;3.07;;;26.10;47.20;;;;;;4146446;28;20335;-69
2022/06/30 10:10:57;;;;;;;5.10;4.57;;;25.70;50.10;;;;;;4145417;28;20601;-69
2022/06/30 10:12:58;;;;;;;8.33;3.23;;;25.60;48.40;;;;;;4146363;28;20193;-68
2022/06/30 10:15:00;;;;;;;5.00;3.30;;;25.90;47.90;;;;;;4146438;28;20178;-69
2022/06/30 10:17:04;;;;;;;4.37;3.63;;;26.30;47.10;;;;;;4146410;28;20186;-69
2022/06/30 10:19:06;;;;;;;3.30;3.10;;;26.20;48.00;;;;;;4128933;28;20189;-69
2022/06/30 10:21:08;;;;;;;6.07;3.70;;;26.40;47.90;;;;;;4145890;28;20185;-69
2022/06/30 10:23:09;;;;;;;3.97;3.10;;;26.90;48.80;;;;;;4146366;28;20197;-69
2022/06/30 10:25:09;;;;;;;5.10;4.70;;;27.40;47.50;;;;;;4146284;28;20235;-69
2022/06/30 10:27:14;;;;;;;5.33;4.83;;;27.50;44.70;;;;;;4146211;28;20220;-69
2022/06/30 10:29:15;;;;;;;4.63;3.00;;;27.70;42.80;;;;;;4146169;28;20173;-69
2022/06/30 10:31:24;;;;;;;7.00;6.40;;;28.00;42.90;;;;;;4145607;28;20256;-69
2022/06/30 10:33:48;;;;;;;3.97;3.30;;;27.30;41.90;;;;;;4128485;28;20256;-69
2022/06/30 10:35:56;;;;;;;2.80;2.60;;;27.10;44.10;;;;;;4146171;28;20177;-69
2022/06/30 10:38:21;;;;;;;6.57;3.77;;;27.80;40.80;;;;;;4146412;28;20181;-69
2022/06/30 10:40:59;;;;;;;3.07;2.80;;;28.00;38.50;;;;;;4146194;28;20185;-69
2022/06/30 10:43:00;;;;;;;2.73;2.53;;;28.00;38.00;;;;;;4146076;28;20263;-69